sensor_id;sensor_type;location;lat;lon;timestamp;P1;durP1;ratioP1;P2;durP2;ratioP2
77854;SDS011;67046;50.088;14.336;2023-03-21T00:00:13;5.70;;;5.00;;
77854;SDS011;67046;50.088;14.336;2023-03-21T00:01:06;5.40;;;4.20;;
77854;SDS011;67046;50.088;14.336;2023-03-21T00:01:38;6.70;;;4.60;;
77854;SDS011;67046;50.088;14.336;2023-03-21T00:02:10;6.70;;;4.40;;
77854;SDS011;67046;50.088;14.336;2023-03-21T00:02:43;6.10;;;5.00;;
77854;SDS011;67046;50.088;14.336;2023-03-21T00:03:15;7.30;;;4.80;;
77854;SDS011;67046;50.088;14.336;2023-03-21T00:03:47;6.10;;;4.30;;
77854;SDS011;67046;50.088;14.336;2023-03-21T00:04:20;5.70;;;4.50;;
77854;SDS011;67046;50.088;14.336;2023-03-21T00:04:54;7.60;;;4.40;;
77854;SDS011;67046;50.088;14.336;2023-03-21T00:05:26;7.30;;;5.00;;
77854;SDS011;67046;50.088;14.336;2023-03-21T00:05:59;9.20;;;5.20;;
77854;SDS011;67046;50.088;14.336;2023-03-21T00:06:36;6.90;;;4.70;;
77854;SDS011;67046;50.088;14.336;2023-03-21T00:07:09;5.40;;;4.00;;
77854;SDS011;67046;50.088;14.336;2023-03-21T00:07:41;6.30;;;4.20;;
77854;SDS011;67046;50.088;14.336;2023-03-21T00:08:13;6.10;;;4.60;;
77854;SDS011;67046;50.088;14.336;2023-03-21T00:08:45;6.70;;;4.40;;
77854;SDS011;67046;50.088;14.336;2023-03-21T00:09:17;5.30;;;4.50;;
77854;SDS011;67046;50.088;14.336;2023-03-21T00:09:50;7.20;;;4.80;;
77854;SDS011;67046;50.088;14.336;2023-03-21T00:10:24;6.20;;;4.80;;
77854;SDS011;67046;50.088;14.336;2023-03-21T00:11:00;7.00;;;4.90;;
77854;SDS011;67046;50.088;14.336;2023-03-21T00:11:34;6.70;;;4.90;;
77854;SDS011;67046;50.088;14.336;2023-03-21T00:12:06;7.00;;;5.20;;
77854;SDS011;67046;50.088;14.336;2023-03-21T00:12:40;8.20;;;4.80;;
77854;SDS011;67046;50.088;14.336;2023-03-21T00:13:14;6.90;;;4.60;;
77854;SDS011;67046;50.088;14.336;2023-03-21T00:13:46;7.20;;;5.20;;
77854;SDS011;67046;50.088;14.336;2023-03-21T00:14:18;6.20;;;4.70;;
77854;SDS011;67046;50.088;14.336;2023-03-21T00:14:50;6.70;;;4.80;;
77854;SDS011;67046;50.088;14.336;2023-03-21T00:15:24;7.40;;;5.00;;
77854;SDS011;67046;50.088;14.336;2023-03-21T00:16:04;6.90;;;4.80;;
77854;SDS011;67046;50.088;14.336;2023-03-21T00:16:40;6.40;;;4.60;;
77854;SDS011;67046;50.088;14.336;2023-03-21T00:17:12;7.10;;;5.10;;
77854;SDS011;67046;50.088;14.336;2023-03-21T00:17:46;7.60;;;4.70;;
77854;SDS011;67046;50.088;14.336;2023-03-21T00:18:21;6.40;;;5.20;;
77854;SDS011;67046;50.088;14.336;2023-03-21T00:18:54;5.20;;;4.00;;
77854;SDS011;67046;50.088;14.336;2023-03-21T00:19:27;7.10;;;4.20;;
77854;SDS011;67046;50.088;14.336;2023-03-21T00:20:00;6.10;;;4.60;;
77854;SDS011;67046;50.088;14.336;2023-03-21T00:20:35;6.00;;;4.10;;
77854;SDS011;67046;50.088;14.336;2023-03-21T00:21:09;5.80;;;4.70;;
77854;SDS011;67046;50.088;14.336;2023-03-21T00:21:42;8.40;;;5.10;;
77854;SDS011;67046;50.088;14.336;2023-03-21T00:22:16;7.00;;;5.10;;
77854;SDS011;67046;50.088;14.336;2023-03-21T00:22:48;7.20;;;4.90;;
77854;SDS011;67046;50.088;14.336;2023-03-21T00:23:20;6.50;;;4.70;;
77854;SDS011;67046;50.088;14.336;2023-03-21T00:23:52;7.00;;;4.80;;
77854;SDS011;67046;50.088;14.336;2023-03-21T00:24:25;8.00;;;5.50;;
77854;SDS011;67046;50.088;14.336;2023-03-21T00:24:57;6.70;;;5.20;;
77854;SDS011;67046;50.088;14.336;2023-03-21T00:25:29;5.50;;;4.80;;
77854;SDS011;67046;50.088;14.336;2023-03-21T00:26:03;5.90;;;4.80;;
77854;SDS011;67046;50.088;14.336;2023-03-21T00:26:36;6.70;;;5.20;;
77854;SDS011;67046;50.088;14.336;2023-03-21T00:27:08;6.60;;;5.40;;
77854;SDS011;67046;50.088;14.336;2023-03-21T00:27:40;6.70;;;5.00;;
77854;SDS011;67046;50.088;14.336;2023-03-21T00:28:12;7.10;;;5.30;;
77854;SDS011;67046;50.088;14.336;2023-03-21T00:28:44;8.00;;;5.40;;
77854;SDS011;67046;50.088;14.336;2023-03-21T00:29:16;7.30;;;5.30;;
77854;SDS011;67046;50.088;14.336;2023-03-21T00:29:48;6.90;;;5.20;;
77854;SDS011;67046;50.088;14.336;2023-03-21T00:30:20;7.00;;;4.90;;
77854;SDS011;67046;50.088;14.336;2023-03-21T00:30:58;6.90;;;5.00;;
77854;SDS011;67046;50.088;14.336;2023-03-21T00:32:03;6.50;;;4.70;;
77854;SDS011;67046;50.088;14.336;2023-03-21T00:32:35;8.50;;;5.50;;
77854;SDS011;67046;50.088;14.336;2023-03-21T00:33:06;8.20;;;5.30;;
77854;SDS011;67046;50.088;14.336;2023-03-21T00:33:39;7.40;;;5.10;;
77854;SDS011;67046;50.088;14.336;2023-03-21T00:34:11;6.20;;;5.00;;
77854;SDS011;67046;50.088;14.336;2023-03-21T00:34:43;8.30;;;5.70;;
77854;SDS011;67046;50.088;14.336;2023-03-21T00:35:15;7.40;;;5.20;;
77854;SDS011;67046;50.088;14.336;2023-03-21T00:35:49;6.50;;;4.80;;
77854;SDS011;67046;50.088;14.336;2023-03-21T00:36:22;7.00;;;5.30;;
77854;SDS011;67046;50.088;14.336;2023-03-21T00:36:56;7.10;;;5.20;;
77854;SDS011;67046;50.088;14.336;2023-03-21T00:37:28;7.00;;;4.60;;
77854;SDS011;67046;50.088;14.336;2023-03-21T00:38:00;7.70;;;5.80;;
77854;SDS011;67046;50.088;14.336;2023-03-21T00:38:33;8.70;;;5.40;;
77854;SDS011;67046;50.088;14.336;2023-03-21T00:39:06;7.80;;;5.90;;
77854;SDS011;67046;50.088;14.336;2023-03-21T00:39:38;6.90;;;5.00;;
77854;SDS011;67046;50.088;14.336;2023-03-21T00:40:10;6.60;;;5.20;;
77854;SDS011;67046;50.088;14.336;2023-03-21T00:40:43;7.60;;;5.40;;
77854;SDS011;67046;50.088;14.336;2023-03-21T00:41:47;6.60;;;4.80;;
77854;SDS011;67046;50.088;14.336;2023-03-21T00:42:20;7.50;;;5.00;;
77854;SDS011;67046;50.088;14.336;2023-03-21T00:42:52;7.30;;;5.10;;
77854;SDS011;67046;50.088;14.336;2023-03-21T00:43:24;7.30;;;5.40;;
77854;SDS011;67046;50.088;14.336;2023-03-21T00:44:00;7.80;;;5.70;;
77854;SDS011;67046;50.088;14.336;2023-03-21T00:45:07;5.60;;;4.20;;
77854;SDS011;67046;50.088;14.336;2023-03-21T00:45:41;7.00;;;4.70;;
77854;SDS011;67046;50.088;14.336;2023-03-21T00:46:14;6.90;;;5.10;;
77854;SDS011;67046;50.088;14.336;2023-03-21T00:46:46;7.80;;;5.10;;
77854;SDS011;67046;50.088;14.336;2023-03-21T00:47:18;7.60;;;5.70;;
77854;SDS011;67046;50.088;14.336;2023-03-21T00:47:50;6.00;;;4.90;;
77854;SDS011;67046;50.088;14.336;2023-03-21T00:48:22;6.30;;;5.10;;
77854;SDS011;67046;50.088;14.336;2023-03-21T00:49:26;5.60;;;4.50;;
77854;SDS011;67046;50.088;14.336;2023-03-21T00:49:58;6.10;;;4.90;;
77854;SDS011;67046;50.088;14.336;2023-03-21T00:50:31;6.50;;;5.10;;
77854;SDS011;67046;50.088;14.336;2023-03-21T00:51:09;7.00;;;5.20;;
77854;SDS011;67046;50.088;14.336;2023-03-21T00:51:43;6.50;;;5.20;;
77854;SDS011;67046;50.088;14.336;2023-03-21T00:52:15;6.10;;;4.80;;
77854;SDS011;67046;50.088;14.336;2023-03-21T00:52:47;6.90;;;5.30;;
77854;SDS011;67046;50.088;14.336;2023-03-21T00:53:19;7.20;;;5.50;;
77854;SDS011;67046;50.088;14.336;2023-03-21T00:53:53;9.90;;;5.70;;
77854;SDS011;67046;50.088;14.336;2023-03-21T00:54:26;7.90;;;5.70;;
77854;SDS011;67046;50.088;14.336;2023-03-21T00:54:58;7.60;;;5.20;;
77854;SDS011;67046;50.088;14.336;2023-03-21T00:55:32;6.80;;;4.90;;
77854;SDS011;67046;50.088;14.336;2023-03-21T00:56:04;8.80;;;5.50;;
77854;SDS011;67046;50.088;14.336;2023-03-21T00:56:36;7.40;;;4.40;;
77854;SDS011;67046;50.088;14.336;2023-03-21T00:57:08;7.80;;;5.40;;
77854;SDS011;67046;50.088;14.336;2023-03-21T00:57:40;6.40;;;4.90;;
77854;SDS011;67046;50.088;14.336;2023-03-21T00:58:13;6.90;;;4.80;;
77854;SDS011;67046;50.088;14.336;2023-03-21T00:58:46;7.70;;;5.40;;
77854;SDS011;67046;50.088;14.336;2023-03-21T00:59:18;8.00;;;5.40;;
77854;SDS011;67046;50.088;14.336;2023-03-21T01:00:22;7.60;;;4.90;;
77854;SDS011;67046;50.088;14.336;2023-03-21T01:00:54;7.20;;;5.40;;
77854;SDS011;67046;50.088;14.336;2023-03-21T01:01:26;9.50;;;5.70;;
77854;SDS011;67046;50.088;14.336;2023-03-21T01:02:02;7.50;;;5.60;;
77854;SDS011;67046;50.088;14.336;2023-03-21T01:02:38;7.90;;;5.80;;
77854;SDS011;67046;50.088;14.336;2023-03-21T01:03:27;8.10;;;5.30;;
77854;SDS011;67046;50.088;14.336;2023-03-21T01:04:00;6.60;;;5.40;;
77854;SDS011;67046;50.088;14.336;2023-03-21T01:04:43;8.80;;;5.80;;
77854;SDS011;67046;50.088;14.336;2023-03-21T01:05:15;7.80;;;5.40;;
77854;SDS011;67046;50.088;14.336;2023-03-21T01:06:08;7.40;;;4.80;;
77854;SDS011;67046;50.088;14.336;2023-03-21T01:06:43;7.90;;;5.30;;
77854;SDS011;67046;50.088;14.336;2023-03-21T01:07:15;7.30;;;4.80;;
77854;SDS011;67046;50.088;14.336;2023-03-21T01:07:47;8.00;;;5.80;;
77854;SDS011;67046;50.088;14.336;2023-03-21T01:08:24;9.50;;;6.00;;
77854;SDS011;67046;50.088;14.336;2023-03-21T01:08:57;8.10;;;5.60;;
77854;SDS011;67046;50.088;14.336;2023-03-21T01:09:29;6.90;;;4.90;;
77854;SDS011;67046;50.088;14.336;2023-03-21T01:10:02;7.10;;;4.90;;
77854;SDS011;67046;50.088;14.336;2023-03-21T01:10:37;8.50;;;5.40;;
77854;SDS011;67046;50.088;14.336;2023-03-21T01:11:14;7.40;;;5.30;;
77854;SDS011;67046;50.088;14.336;2023-03-21T01:11:48;8.10;;;5.40;;
77854;SDS011;67046;50.088;14.336;2023-03-21T01:12:20;7.70;;;4.90;;
77854;SDS011;67046;50.088;14.336;2023-03-21T01:12:52;7.70;;;5.40;;
77854;SDS011;67046;50.088;14.336;2023-03-21T01:13:24;8.50;;;6.20;;
77854;SDS011;67046;50.088;14.336;2023-03-21T01:13:57;8.80;;;5.70;;
77854;SDS011;67046;50.088;14.336;2023-03-21T01:14:29;6.60;;;4.90;;
77854;SDS011;67046;50.088;14.336;2023-03-21T01:15:01;7.20;;;6.10;;
77854;SDS011;67046;50.088;14.336;2023-03-21T01:15:34;7.10;;;5.20;;
77854;SDS011;67046;50.088;14.336;2023-03-21T01:16:07;8.40;;;5.60;;
77854;SDS011;67046;50.088;14.336;2023-03-21T01:16:40;7.50;;;5.70;;
77854;SDS011;67046;50.088;14.336;2023-03-21T01:17:44;9.20;;;5.40;;
77854;SDS011;67046;50.088;14.336;2023-03-21T01:18:48;7.90;;;5.40;;
77854;SDS011;67046;50.088;14.336;2023-03-21T01:19:22;8.60;;;5.30;;
77854;SDS011;67046;50.088;14.336;2023-03-21T01:19:58;6.70;;;5.10;;
77854;SDS011;67046;50.088;14.336;2023-03-21T01:20:30;7.40;;;5.40;;
77854;SDS011;67046;50.088;14.336;2023-03-21T01:21:07;8.80;;;5.90;;
77854;SDS011;67046;50.088;14.336;2023-03-21T01:21:42;8.50;;;5.70;;
77854;SDS011;67046;50.088;14.336;2023-03-21T01:22:14;7.60;;;5.30;;
77854;SDS011;67046;50.088;14.336;2023-03-21T01:23:18;8.20;;;5.60;;
77854;SDS011;67046;50.088;14.336;2023-03-21T01:23:50;7.80;;;5.20;;
77854;SDS011;67046;50.088;14.336;2023-03-21T01:24:54;7.00;;;5.10;;
77854;SDS011;67046;50.088;14.336;2023-03-21T01:25:26;7.40;;;5.20;;
77854;SDS011;67046;50.088;14.336;2023-03-21T01:25:58;7.60;;;5.80;;
77854;SDS011;67046;50.088;14.336;2023-03-21T01:26:30;7.50;;;5.70;;
77854;SDS011;67046;50.088;14.336;2023-03-21T01:27:02;8.50;;;6.00;;
77854;SDS011;67046;50.088;14.336;2023-03-21T01:27:36;7.90;;;5.20;;
77854;SDS011;67046;50.088;14.336;2023-03-21T01:28:08;8.30;;;6.00;;
77854;SDS011;67046;50.088;14.336;2023-03-21T01:28:41;7.10;;;5.00;;
77854;SDS011;67046;50.088;14.336;2023-03-21T01:29:14;8.00;;;5.90;;
77854;SDS011;67046;50.088;14.336;2023-03-21T01:29:46;7.60;;;5.70;;
77854;SDS011;67046;50.088;14.336;2023-03-21T01:30:18;8.70;;;6.20;;
77854;SDS011;67046;50.088;14.336;2023-03-21T01:30:50;8.60;;;6.10;;
77854;SDS011;67046;50.088;14.336;2023-03-21T01:31:22;8.00;;;5.80;;
77854;SDS011;67046;50.088;14.336;2023-03-21T01:31:54;8.20;;;5.90;;
77854;SDS011;67046;50.088;14.336;2023-03-21T01:32:26;8.30;;;6.60;;
77854;SDS011;67046;50.088;14.336;2023-03-21T01:32:58;8.40;;;6.50;;
77854;SDS011;67046;50.088;14.336;2023-03-21T01:33:31;8.70;;;6.20;;
77854;SDS011;67046;50.088;14.336;2023-03-21T01:34:04;7.70;;;5.40;;
77854;SDS011;67046;50.088;14.336;2023-03-21T01:34:36;8.50;;;5.80;;
77854;SDS011;67046;50.088;14.336;2023-03-21T01:35:08;9.30;;;5.90;;
77854;SDS011;67046;50.088;14.336;2023-03-21T01:35:40;7.80;;;5.80;;
77854;SDS011;67046;50.088;14.336;2023-03-21T01:36:17;8.60;;;5.90;;
77854;SDS011;67046;50.088;14.336;2023-03-21T01:36:52;7.90;;;5.60;;
77854;SDS011;67046;50.088;14.336;2023-03-21T01:37:24;8.00;;;5.70;;
77854;SDS011;67046;50.088;14.336;2023-03-21T01:37:56;11.00;;;5.40;;
77854;SDS011;67046;50.088;14.336;2023-03-21T01:38:29;8.30;;;5.90;;
77854;SDS011;67046;50.088;14.336;2023-03-21T01:39:01;8.20;;;5.50;;
77854;SDS011;67046;50.088;14.336;2023-03-21T01:39:33;7.90;;;5.70;;
77854;SDS011;67046;50.088;14.336;2023-03-21T01:40:06;7.70;;;5.50;;
77854;SDS011;67046;50.088;14.336;2023-03-21T01:40:44;7.60;;;5.80;;
77854;SDS011;67046;50.088;14.336;2023-03-21T01:41:27;8.80;;;5.70;;
77854;SDS011;67046;50.088;14.336;2023-03-21T01:42:01;7.70;;;5.50;;
77854;SDS011;67046;50.088;14.336;2023-03-21T01:42:33;7.70;;;5.60;;
77854;SDS011;67046;50.088;14.336;2023-03-21T01:43:10;8.40;;;6.50;;
77854;SDS011;67046;50.088;14.336;2023-03-21T01:43:59;9.10;;;5.60;;
77854;SDS011;67046;50.088;14.336;2023-03-21T01:46:37;7.00;;;4.60;;
77854;SDS011;67046;50.088;14.336;2023-03-21T01:47:10;8.00;;;5.50;;
77854;SDS011;67046;50.088;14.336;2023-03-21T01:47:42;9.30;;;5.90;;
77854;SDS011;67046;50.088;14.336;2023-03-21T01:48:13;9.00;;;6.00;;
77854;SDS011;67046;50.088;14.336;2023-03-21T01:48:56;7.90;;;5.40;;
77854;SDS011;67046;50.088;14.336;2023-03-21T01:49:33;9.00;;;6.60;;
77854;SDS011;67046;50.088;14.336;2023-03-21T01:50:09;8.40;;;5.30;;
77854;SDS011;67046;50.088;14.336;2023-03-21T01:50:41;6.50;;;4.90;;
77854;SDS011;67046;50.088;14.336;2023-03-21T01:51:14;9.60;;;5.60;;
77854;SDS011;67046;50.088;14.336;2023-03-21T01:52:26;8.40;;;5.50;;
77854;SDS011;67046;50.088;14.336;2023-03-21T01:53:00;8.70;;;5.80;;
77854;SDS011;67046;50.088;14.336;2023-03-21T01:53:35;8.90;;;5.70;;
77854;SDS011;67046;50.088;14.336;2023-03-21T01:54:11;7.60;;;5.80;;
77854;SDS011;67046;50.088;14.336;2023-03-21T01:54:49;9.90;;;6.30;;
77854;SDS011;67046;50.088;14.336;2023-03-21T01:55:25;8.10;;;5.70;;
77854;SDS011;67046;50.088;14.336;2023-03-21T01:55:58;8.90;;;5.70;;
77854;SDS011;67046;50.088;14.336;2023-03-21T01:56:37;8.60;;;6.00;;
77854;SDS011;67046;50.088;14.336;2023-03-21T01:57:12;7.80;;;5.50;;
77854;SDS011;67046;50.088;14.336;2023-03-21T01:58:02;10.20;;;6.10;;
77854;SDS011;67046;50.088;14.336;2023-03-21T01:58:36;9.20;;;6.10;;
77854;SDS011;67046;50.088;14.336;2023-03-21T01:59:12;8.00;;;5.30;;
77854;SDS011;67046;50.088;14.336;2023-03-21T01:59:51;9.70;;;6.10;;
77854;SDS011;67046;50.088;14.336;2023-03-21T02:00:25;9.90;;;6.30;;
77854;SDS011;67046;50.088;14.336;2023-03-21T02:01:00;8.70;;;6.20;;
77854;SDS011;67046;50.088;14.336;2023-03-21T02:01:33;9.40;;;6.20;;
77854;SDS011;67046;50.088;14.336;2023-03-21T02:02:12;9.30;;;6.10;;
77854;SDS011;67046;50.088;14.336;2023-03-21T02:02:51;8.80;;;6.00;;
77854;SDS011;67046;50.088;14.336;2023-03-21T02:03:25;9.00;;;5.90;;
77854;SDS011;67046;50.088;14.336;2023-03-21T02:04:00;7.80;;;5.90;;
77854;SDS011;67046;50.088;14.336;2023-03-21T02:04:34;8.40;;;6.30;;
77854;SDS011;67046;50.088;14.336;2023-03-21T02:05:08;7.70;;;5.80;;
77854;SDS011;67046;50.088;14.336;2023-03-21T02:05:49;8.00;;;6.40;;
77854;SDS011;67046;50.088;14.336;2023-03-21T02:06:27;9.00;;;6.30;;
77854;SDS011;67046;50.088;14.336;2023-03-21T02:07:08;10.00;;;5.70;;
77854;SDS011;67046;50.088;14.336;2023-03-21T02:07:45;8.10;;;5.40;;
77854;SDS011;67046;50.088;14.336;2023-03-21T02:08:18;8.70;;;5.80;;
77854;SDS011;67046;50.088;14.336;2023-03-21T02:08:51;9.10;;;6.10;;
77854;SDS011;67046;50.088;14.336;2023-03-21T02:09:25;9.30;;;6.40;;
77854;SDS011;67046;50.088;14.336;2023-03-21T02:10:03;8.60;;;6.50;;
77854;SDS011;67046;50.088;14.336;2023-03-21T02:10:40;8.50;;;6.20;;
77854;SDS011;67046;50.088;14.336;2023-03-21T02:11:15;9.70;;;6.30;;
77854;SDS011;67046;50.088;14.336;2023-03-21T02:11:48;8.40;;;5.90;;
77854;SDS011;67046;50.088;14.336;2023-03-21T02:12:20;10.20;;;6.70;;
77854;SDS011;67046;50.088;14.336;2023-03-21T02:12:52;9.00;;;6.20;;
77854;SDS011;67046;50.088;14.336;2023-03-21T02:13:28;8.20;;;6.10;;
77854;SDS011;67046;50.088;14.336;2023-03-21T02:14:33;8.30;;;5.60;;
77854;SDS011;67046;50.088;14.336;2023-03-21T02:15:07;8.90;;;6.00;;
77854;SDS011;67046;50.088;14.336;2023-03-21T02:15:41;10.00;;;6.30;;
77854;SDS011;67046;50.088;14.336;2023-03-21T02:17:08;9.50;;;6.80;;
77854;SDS011;67046;50.088;14.336;2023-03-21T02:25:51;8.00;;;5.90;;
77854;SDS011;67046;50.088;14.336;2023-03-21T02:27:55;11.10;;;6.20;;
77854;SDS011;67046;50.088;14.336;2023-03-21T02:32:00;10.90;;;6.50;;
77854;SDS011;67046;50.088;14.336;2023-03-21T02:39:13;9.10;;;5.70;;
77854;SDS011;67046;50.088;14.336;2023-03-21T02:41:27;9.50;;;6.60;;
77854;SDS011;67046;50.088;14.336;2023-03-21T02:41:46;10.80;;;6.20;;
77854;SDS011;67046;50.088;14.336;2023-03-21T02:43:15;9.70;;;6.50;;
77854;SDS011;67046;50.088;14.336;2023-03-21T02:43:56;9.60;;;6.30;;
77854;SDS011;67046;50.088;14.336;2023-03-21T02:44:40;10.00;;;6.20;;
77854;SDS011;67046;50.088;14.336;2023-03-21T02:46:33;10.50;;;5.40;;
77854;SDS011;67046;50.088;14.336;2023-03-21T02:47:19;10.60;;;6.40;;
77854;SDS011;67046;50.088;14.336;2023-03-21T02:47:57;7.40;;;5.50;;
77854;SDS011;67046;50.088;14.336;2023-03-21T02:48:36;9.30;;;6.20;;
77854;SDS011;67046;50.088;14.336;2023-03-21T02:50:03;9.10;;;6.00;;
77854;SDS011;67046;50.088;14.336;2023-03-21T02:50:42;9.80;;;6.60;;
77854;SDS011;67046;50.088;14.336;2023-03-21T02:51:22;9.30;;;6.70;;
77854;SDS011;67046;50.088;14.336;2023-03-21T02:51:58;9.70;;;6.40;;
77854;SDS011;67046;50.088;14.336;2023-03-21T02:52:32;10.30;;;6.60;;
77854;SDS011;67046;50.088;14.336;2023-03-21T02:53:07;9.00;;;6.20;;
77854;SDS011;67046;50.088;14.336;2023-03-21T02:53:44;10.70;;;6.60;;
77854;SDS011;67046;50.088;14.336;2023-03-21T02:54:20;8.90;;;6.40;;
77854;SDS011;67046;50.088;14.336;2023-03-21T02:54:55;9.10;;;6.30;;
77854;SDS011;67046;50.088;14.336;2023-03-21T02:55:29;10.60;;;7.10;;
77854;SDS011;67046;50.088;14.336;2023-03-21T02:56:03;9.70;;;6.50;;
77854;SDS011;67046;50.088;14.336;2023-03-21T02:56:41;9.90;;;7.00;;
77854;SDS011;67046;50.088;14.336;2023-03-21T02:57:15;10.20;;;6.50;;
77854;SDS011;67046;50.088;14.336;2023-03-21T02:57:50;10.70;;;7.60;;
77854;SDS011;67046;50.088;14.336;2023-03-21T02:58:25;9.20;;;6.10;;
77854;SDS011;67046;50.088;14.336;2023-03-21T02:58:59;8.90;;;6.20;;
77854;SDS011;67046;50.088;14.336;2023-03-21T02:59:32;9.00;;;6.10;;
77854;SDS011;67046;50.088;14.336;2023-03-21T03:00:06;8.00;;;5.80;;
77854;SDS011;67046;50.088;14.336;2023-03-21T03:00:43;10.30;;;6.60;;
77854;SDS011;67046;50.088;14.336;2023-03-21T03:01:16;9.90;;;6.50;;
77854;SDS011;67046;50.088;14.336;2023-03-21T03:01:49;8.60;;;5.90;;
77854;SDS011;67046;50.088;14.336;2023-03-21T03:02:25;9.40;;;6.40;;
77854;SDS011;67046;50.088;14.336;2023-03-21T03:02:59;8.40;;;6.20;;
77854;SDS011;67046;50.088;14.336;2023-03-21T03:03:31;10.80;;;6.60;;
77854;SDS011;67046;50.088;14.336;2023-03-21T03:04:25;11.20;;;7.30;;
77854;SDS011;67046;50.088;14.336;2023-03-21T03:04:58;8.50;;;5.90;;
77854;SDS011;67046;50.088;14.336;2023-03-21T03:05:35;9.50;;;6.20;;
77854;SDS011;67046;50.088;14.336;2023-03-21T03:06:14;10.00;;;7.00;;
77854;SDS011;67046;50.088;14.336;2023-03-21T03:07:42;9.60;;;6.10;;
77854;SDS011;67046;50.088;14.336;2023-03-21T03:09:13;9.40;;;7.00;;
77854;SDS011;67046;50.088;14.336;2023-03-21T03:10:42;8.20;;;5.80;;
77854;SDS011;67046;50.088;14.336;2023-03-21T03:11:43;8.60;;;5.20;;
77854;SDS011;67046;50.088;14.336;2023-03-21T03:12:25;9.40;;;6.20;;
77854;SDS011;67046;50.088;14.336;2023-03-21T03:15:52;7.60;;;5.40;;
77854;SDS011;67046;50.088;14.336;2023-03-21T03:19:09;9.80;;;5.80;;
77854;SDS011;67046;50.088;14.336;2023-03-21T03:20:42;10.00;;;6.20;;
77854;SDS011;67046;50.088;14.336;2023-03-21T03:21:27;10.00;;;5.90;;
77854;SDS011;67046;50.088;14.336;2023-03-21T03:23:21;10.80;;;6.70;;
77854;SDS011;67046;50.088;14.336;2023-03-21T03:25:04;11.20;;;6.70;;
77854;SDS011;67046;50.088;14.336;2023-03-21T03:25:52;10.00;;;7.00;;
77854;SDS011;67046;50.088;14.336;2023-03-21T03:26:35;11.30;;;6.30;;
77854;SDS011;67046;50.088;14.336;2023-03-21T03:27:12;10.80;;;7.00;;
77854;SDS011;67046;50.088;14.336;2023-03-21T03:27:48;9.10;;;5.90;;
77854;SDS011;67046;50.088;14.336;2023-03-21T03:28:26;9.60;;;6.50;;
77854;SDS011;67046;50.088;14.336;2023-03-21T03:29:04;9.40;;;6.00;;
77854;SDS011;67046;50.088;14.336;2023-03-21T03:29:40;9.90;;;6.40;;
77854;SDS011;67046;50.088;14.336;2023-03-21T03:30:15;10.00;;;7.20;;
77854;SDS011;67046;50.088;14.336;2023-03-21T03:30:47;9.30;;;5.70;;
77854;SDS011;67046;50.088;14.336;2023-03-21T03:31:24;9.30;;;6.50;;
77854;SDS011;67046;50.088;14.336;2023-03-21T03:32:03;10.20;;;6.40;;
77854;SDS011;67046;50.088;14.336;2023-03-21T03:32:43;9.40;;;6.70;;
77854;SDS011;67046;50.088;14.336;2023-03-21T03:33:19;10.10;;;6.90;;
77854;SDS011;67046;50.088;14.336;2023-03-21T03:33:54;10.60;;;6.20;;
77854;SDS011;67046;50.088;14.336;2023-03-21T03:34:34;9.60;;;6.80;;
77854;SDS011;67046;50.088;14.336;2023-03-21T03:35:10;9.30;;;6.50;;
77854;SDS011;67046;50.088;14.336;2023-03-21T03:35:46;10.20;;;6.90;;
77854;SDS011;67046;50.088;14.336;2023-03-21T03:36:19;10.60;;;7.40;;
77854;SDS011;67046;50.088;14.336;2023-03-21T03:36:55;10.80;;;6.20;;
77854;SDS011;67046;50.088;14.336;2023-03-21T03:37:30;10.20;;;6.90;;
77854;SDS011;67046;50.088;14.336;2023-03-21T03:38:05;9.50;;;6.50;;
77854;SDS011;67046;50.088;14.336;2023-03-21T03:38:38;11.70;;;7.10;;
77854;SDS011;67046;50.088;14.336;2023-03-21T03:39:12;9.80;;;6.40;;
77854;SDS011;67046;50.088;14.336;2023-03-21T03:39:53;9.70;;;6.60;;
77854;SDS011;67046;50.088;14.336;2023-03-21T03:40:40;8.60;;;6.00;;
77854;SDS011;67046;50.088;14.336;2023-03-21T03:41:20;8.10;;;5.60;;
77854;SDS011;67046;50.088;14.336;2023-03-21T03:41:58;7.70;;;5.60;;
77854;SDS011;67046;50.088;14.336;2023-03-21T03:42:52;8.30;;;5.90;;
77854;SDS011;67046;50.088;14.336;2023-03-21T03:43:38;8.60;;;6.70;;
77854;SDS011;67046;50.088;14.336;2023-03-21T03:44:17;9.40;;;6.00;;
77854;SDS011;67046;50.088;14.336;2023-03-21T03:45:22;8.20;;;5.20;;
77854;SDS011;67046;50.088;14.336;2023-03-21T03:46:04;8.70;;;5.70;;
77854;SDS011;67046;50.088;14.336;2023-03-21T03:46:51;9.30;;;6.10;;
77854;SDS011;67046;50.088;14.336;2023-03-21T03:47:31;9.90;;;6.20;;
77854;SDS011;67046;50.088;14.336;2023-03-21T03:49:07;9.60;;;6.70;;
77854;SDS011;67046;50.088;14.336;2023-03-21T03:49:45;9.10;;;6.00;;
77854;SDS011;67046;50.088;14.336;2023-03-21T03:50:26;9.00;;;6.40;;
77854;SDS011;67046;50.088;14.336;2023-03-21T03:52:00;10.40;;;6.10;;
77854;SDS011;67046;50.088;14.336;2023-03-21T03:52:35;10.10;;;6.60;;
77854;SDS011;67046;50.088;14.336;2023-03-21T03:54:11;9.20;;;6.10;;
77854;SDS011;67046;50.088;14.336;2023-03-21T03:54:48;10.00;;;5.80;;
77854;SDS011;67046;50.088;14.336;2023-03-21T03:55:22;9.70;;;6.30;;
77854;SDS011;67046;50.088;14.336;2023-03-21T03:55:58;8.50;;;6.30;;
77854;SDS011;67046;50.088;14.336;2023-03-21T03:56:32;11.60;;;7.00;;
77854;SDS011;67046;50.088;14.336;2023-03-21T03:57:04;8.90;;;6.50;;
77854;SDS011;67046;50.088;14.336;2023-03-21T03:57:37;9.10;;;6.50;;
77854;SDS011;67046;50.088;14.336;2023-03-21T03:58:10;9.20;;;6.60;;
77854;SDS011;67046;50.088;14.336;2023-03-21T03:58:43;10.30;;;7.20;;
77854;SDS011;67046;50.088;14.336;2023-03-21T03:59:15;10.60;;;6.70;;
77854;SDS011;67046;50.088;14.336;2023-03-21T03:59:53;11.00;;;7.10;;
77854;SDS011;67046;50.088;14.336;2023-03-21T04:00:58;11.40;;;6.40;;
77854;SDS011;67046;50.088;14.336;2023-03-21T04:01:30;8.90;;;6.70;;
77854;SDS011;67046;50.088;14.336;2023-03-21T04:02:02;8.40;;;6.10;;
77854;SDS011;67046;50.088;14.336;2023-03-21T04:03:06;10.90;;;7.20;;
77854;SDS011;67046;50.088;14.336;2023-03-21T04:03:40;10.10;;;6.30;;
77854;SDS011;67046;50.088;14.336;2023-03-21T04:04:16;9.80;;;6.60;;
77854;SDS011;67046;50.088;14.336;2023-03-21T04:04:48;9.90;;;6.60;;
77854;SDS011;67046;50.088;14.336;2023-03-21T04:05:23;11.40;;;7.30;;
77854;SDS011;67046;50.088;14.336;2023-03-21T04:05:57;9.40;;;7.00;;
77854;SDS011;67046;50.088;14.336;2023-03-21T04:06:28;9.00;;;6.70;;
77854;SDS011;67046;50.088;14.336;2023-03-21T04:07:01;10.60;;;7.50;;
77854;SDS011;67046;50.088;14.336;2023-03-21T04:07:34;9.90;;;6.40;;
77854;SDS011;67046;50.088;14.336;2023-03-21T04:08:06;9.90;;;6.70;;
77854;SDS011;67046;50.088;14.336;2023-03-21T04:08:39;10.50;;;6.90;;
77854;SDS011;67046;50.088;14.336;2023-03-21T04:09:44;10.30;;;6.50;;
77854;SDS011;67046;50.088;14.336;2023-03-21T04:10:16;9.30;;;6.20;;
77854;SDS011;67046;50.088;14.336;2023-03-21T04:10:48;11.40;;;6.30;;
77854;SDS011;67046;50.088;14.336;2023-03-21T04:11:53;11.00;;;5.90;;
77854;SDS011;67046;50.088;14.336;2023-03-21T04:12:25;8.50;;;6.80;;
77854;SDS011;67046;50.088;14.336;2023-03-21T04:12:57;11.20;;;7.00;;
77854;SDS011;67046;50.088;14.336;2023-03-21T04:13:29;12.30;;;6.90;;
77854;SDS011;67046;50.088;14.336;2023-03-21T04:14:01;11.50;;;7.10;;
77854;SDS011;67046;50.088;14.336;2023-03-21T04:14:33;9.40;;;6.50;;
77854;SDS011;67046;50.088;14.336;2023-03-21T04:15:05;9.40;;;7.20;;
77854;SDS011;67046;50.088;14.336;2023-03-21T04:15:38;9.00;;;6.60;;
77854;SDS011;67046;50.088;14.336;2023-03-21T04:16:10;12.50;;;8.30;;
77854;SDS011;67046;50.088;14.336;2023-03-21T04:16:43;10.30;;;7.10;;